sensor_id;sensor_type;location;lat;lon;timestamp;P1;durP1;ratioP1;P2;durP2;ratioP2
14688;SDS011;7432;48.728;9.154;2023-02-28T00:00:05;6.50;;;4.70;;
14688;SDS011;7432;48.728;9.154;2023-02-28T00:02:35;4.83;;;4.43;;
14688;SDS011;7432;48.728;9.154;2023-02-28T00:05:01;4.57;;;4.20;;
14688;SDS011;7432;48.728;9.154;2023-02-28T00:07:28;5.53;;;5.03;;
14688;SDS011;7432;48.728;9.154;2023-02-28T00:09:55;5.43;;;4.97;;
14688;SDS011;7432;48.728;9.154;2023-02-28T00:12:21;6.43;;;5.60;;
14688;SDS011;7432;48.728;9.154;2023-02-28T00:14:49;5.20;;;4.70;;
14688;SDS011;7432;48.728;9.154;2023-02-28T00:17:15;5.93;;;4.43;;
14688;SDS011;7432;48.728;9.154;2023-02-28T00:19:42;5.23;;;4.77;;
14688;SDS011;7432;48.728;9.154;2023-02-28T00:22:09;4.27;;;3.97;;
14688;SDS011;7432;48.728;9.154;2023-02-28T00:24:35;5.37;;;4.87;;
14688;SDS011;7432;48.728;9.154;2023-02-28T00:27:02;4.80;;;4.40;;
14688;SDS011;7432;48.728;9.154;2023-02-28T00:29:28;4.77;;;4.37;;
14688;SDS011;7432;48.728;9.154;2023-02-28T00:31:56;5.40;;;4.83;;
14688;SDS011;7432;48.728;9.154;2023-02-28T00:34:22;4.93;;;4.53;;
14688;SDS011;7432;48.728;9.154;2023-02-28T00:36:49;5.50;;;5.00;;
14688;SDS011;7432;48.728;9.154;2023-02-28T00:39:15;4.60;;;4.20;;
14688;SDS011;7432;48.728;9.154;2023-02-28T00:41:42;5.13;;;4.60;;
14688;SDS011;7432;48.728;9.154;2023-02-28T00:44:09;4.80;;;4.40;;
14688;SDS011;7432;48.728;9.154;2023-02-28T00:46:36;5.63;;;5.13;;
14688;SDS011;7432;48.728;9.154;2023-02-28T00:49:03;5.70;;;5.20;;
14688;SDS011;7432;48.728;9.154;2023-02-28T00:51:30;4.80;;;4.50;;
14688;SDS011;7432;48.728;9.154;2023-02-28T00:53:56;10.20;;;5.20;;
14688;SDS011;7432;48.728;9.154;2023-02-28T00:56:23;6.97;;;5.00;;
14688;SDS011;7432;48.728;9.154;2023-02-28T00:58:49;5.80;;;5.20;;
14688;SDS011;7432;48.728;9.154;2023-02-28T01:01:15;5.53;;;5.03;;
14688;SDS011;7432;48.728;9.154;2023-02-28T01:03:42;5.37;;;4.87;;
14688;SDS011;7432;48.728;9.154;2023-02-28T01:06:09;5.23;;;4.70;;
14688;SDS011;7432;48.728;9.154;2023-02-28T01:08:36;6.23;;;4.67;;
14688;SDS011;7432;48.728;9.154;2023-02-28T01:11:06;5.00;;;4.60;;
14688;SDS011;7432;48.728;9.154;2023-02-28T01:13:34;5.33;;;4.60;;
14688;SDS011;7432;48.728;9.154;2023-02-28T01:16:00;5.10;;;4.70;;
14688;SDS011;7432;48.728;9.154;2023-02-28T01:18:26;5.20;;;4.80;;
14688;SDS011;7432;48.728;9.154;2023-02-28T01:20:53;4.93;;;4.50;;
14688;SDS011;7432;48.728;9.154;2023-02-28T01:23:21;5.20;;;4.70;;
14688;SDS011;7432;48.728;9.154;2023-02-28T01:25:48;5.23;;;4.80;;
14688;SDS011;7432;48.728;9.154;2023-02-28T01:28:15;5.13;;;4.73;;
14688;SDS011;7432;48.728;9.154;2023-02-28T01:30:42;5.07;;;4.67;;
14688;SDS011;7432;48.728;9.154;2023-02-28T01:33:08;7.77;;;5.13;;
14688;SDS011;7432;48.728;9.154;2023-02-28T01:35:35;5.37;;;4.87;;
14688;SDS011;7432;48.728;9.154;2023-02-28T01:38:01;5.23;;;4.63;;
14688;SDS011;7432;48.728;9.154;2023-02-28T01:40:30;6.03;;;5.00;;
14688;SDS011;7432;48.728;9.154;2023-02-28T01:42:56;5.67;;;5.13;;
14688;SDS011;7432;48.728;9.154;2023-02-28T01:45:23;5.60;;;5.10;;
14688;SDS011;7432;48.728;9.154;2023-02-28T01:47:53;5.77;;;5.27;;
14688;SDS011;7432;48.728;9.154;2023-02-28T01:50:24;5.37;;;4.97;;
14688;SDS011;7432;48.728;9.154;2023-02-28T01:52:54;5.27;;;4.77;;
14688;SDS011;7432;48.728;9.154;2023-02-28T01:55:26;5.20;;;4.73;;
14688;SDS011;7432;48.728;9.154;2023-02-28T01:57:57;4.90;;;4.50;;
14688;SDS011;7432;48.728;9.154;2023-02-28T02:00:27;5.83;;;4.90;;
14688;SDS011;7432;48.728;9.154;2023-02-28T02:02:55;5.30;;;4.40;;
14688;SDS011;7432;48.728;9.154;2023-02-28T02:05:26;5.00;;;4.53;;
14688;SDS011;7432;48.728;9.154;2023-02-28T02:07:56;5.27;;;4.77;;
14688;SDS011;7432;48.728;9.154;2023-02-28T02:10:27;5.57;;;5.03;;
14688;SDS011;7432;48.728;9.154;2023-02-28T02:13:06;5.10;;;4.70;;
14688;SDS011;7432;48.728;9.154;2023-02-28T02:15:40;5.40;;;4.83;;
14688;SDS011;7432;48.728;9.154;2023-02-28T02:18:13;5.87;;;5.30;;
14688;SDS011;7432;48.728;9.154;2023-02-28T02:21:00;5.47;;;4.90;;
14688;SDS011;7432;48.728;9.154;2023-02-28T02:23:49;5.37;;;4.87;;
14688;SDS011;7432;48.728;9.154;2023-02-28T02:26:51;6.07;;;5.47;;
14688;SDS011;7432;48.728;9.154;2023-02-28T02:29:46;5.70;;;5.20;;
14688;SDS011;7432;48.728;9.154;2023-02-28T02:32:28;6.40;;;5.00;;
14688;SDS011;7432;48.728;9.154;2023-02-28T02:35:13;5.20;;;4.70;;
14688;SDS011;7432;48.728;9.154;2023-02-28T02:37:46;5.10;;;4.60;;
14688;SDS011;7432;48.728;9.154;2023-02-28T02:40:17;6.70;;;5.27;;
14688;SDS011;7432;48.728;9.154;2023-02-28T02:42:48;5.87;;;5.33;;
14688;SDS011;7432;48.728;9.154;2023-02-28T02:45:19;5.13;;;4.73;;
14688;SDS011;7432;48.728;9.154;2023-02-28T02:47:50;7.03;;;5.50;;
14688;SDS011;7432;48.728;9.154;2023-02-28T02:50:19;5.63;;;5.17;;
14688;SDS011;7432;48.728;9.154;2023-02-28T02:52:51;77.50;;;42.07;;
14688;SDS011;7432;48.728;9.154;2023-02-28T02:55:21;72.27;;;41.37;;
14688;SDS011;7432;48.728;9.154;2023-02-28T02:57:50;33.80;;;22.13;;
14688;SDS011;7432;48.728;9.154;2023-02-28T03:00:20;8.70;;;7.33;;
14688;SDS011;7432;48.728;9.154;2023-02-28T03:02:50;7.13;;;6.43;;
14688;SDS011;7432;48.728;9.154;2023-02-28T03:05:23;9.13;;;8.27;;
14688;SDS011;7432;48.728;9.154;2023-02-28T03:07:51;8.17;;;6.70;;
14688;SDS011;7432;48.728;9.154;2023-02-28T03:13:25;7.33;;;6.60;;
14688;SDS011;7432;48.728;9.154;2023-02-28T03:16:16;7.17;;;6.10;;
14688;SDS011;7432;48.728;9.154;2023-02-28T03:19:04;8.73;;;7.73;;
14688;SDS011;7432;48.728;9.154;2023-02-28T03:21:49;7.17;;;6.47;;
14688;SDS011;7432;48.728;9.154;2023-02-28T03:24:29;6.30;;;5.80;;
14688;SDS011;7432;48.728;9.154;2023-02-28T03:27:03;5.80;;;5.30;;
14688;SDS011;7432;48.728;9.154;2023-02-28T03:29:35;6.43;;;5.83;;
14688;SDS011;7432;48.728;9.154;2023-02-28T03:32:05;5.77;;;5.17;;
14688;SDS011;7432;48.728;9.154;2023-02-28T03:34:39;5.57;;;5.00;;
14688;SDS011;7432;48.728;9.154;2023-02-28T03:37:15;8.53;;;5.70;;
14688;SDS011;7432;48.728;9.154;2023-02-28T03:39:46;6.70;;;5.40;;
14688;SDS011;7432;48.728;9.154;2023-02-28T03:42:15;7.47;;;6.23;;
14688;SDS011;7432;48.728;9.154;2023-02-28T03:44:47;5.67;;;5.17;;
14688;SDS011;7432;48.728;9.154;2023-02-28T03:47:19;6.43;;;5.37;;
14688;SDS011;7432;48.728;9.154;2023-02-28T03:49:52;7.40;;;5.40;;
14688;SDS011;7432;48.728;9.154;2023-02-28T03:52:23;6.57;;;5.97;;
14688;SDS011;7432;48.728;9.154;2023-02-28T03:54:56;7.43;;;6.63;;
14688;SDS011;7432;48.728;9.154;2023-02-28T03:57:30;7.97;;;6.00;;
14688;SDS011;7432;48.728;9.154;2023-02-28T04:00:02;7.40;;;6.03;;
14688;SDS011;7432;48.728;9.154;2023-02-28T04:02:33;6.77;;;5.63;;
14688;SDS011;7432;48.728;9.154;2023-02-28T04:05:00;6.93;;;6.33;;
14688;SDS011;7432;48.728;9.154;2023-02-28T04:07:29;7.50;;;6.43;;
14688;SDS011;7432;48.728;9.154;2023-02-28T04:09:56;6.57;;;5.97;;
14688;SDS011;7432;48.728;9.154;2023-02-28T04:12:24;7.13;;;6.47;;
14688;SDS011;7432;48.728;9.154;2023-02-28T04:14:50;7.07;;;6.43;;
14688;SDS011;7432;48.728;9.154;2023-02-28T04:17:17;7.33;;;5.90;;
14688;SDS011;7432;48.728;9.154;2023-02-28T04:19:44;6.07;;;5.47;;
14688;SDS011;7432;48.728;9.154;2023-02-28T04:22:10;6.83;;;6.13;;
14688;SDS011;7432;48.728;9.154;2023-02-28T04:24:38;7.47;;;6.27;;
14688;SDS011;7432;48.728;9.154;2023-02-28T04:27:06;6.97;;;6.23;;
14688;SDS011;7432;48.728;9.154;2023-02-28T04:29:33;6.83;;;6.13;;
14688;SDS011;7432;48.728;9.154;2023-02-28T04:32:00;9.63;;;7.03;;
14688;SDS011;7432;48.728;9.154;2023-02-28T04:34:27;6.90;;;6.23;;
14688;SDS011;7432;48.728;9.154;2023-02-28T04:36:55;6.97;;;6.17;;
14688;SDS011;7432;48.728;9.154;2023-02-28T04:39:23;7.17;;;6.63;;
14688;SDS011;7432;48.728;9.154;2023-02-28T04:41:51;7.37;;;6.50;;
14688;SDS011;7432;48.728;9.154;2023-02-28T04:44:17;7.13;;;6.43;;
14688;SDS011;7432;48.728;9.154;2023-02-28T04:46:45;7.83;;;7.03;;
14688;SDS011;7432;48.728;9.154;2023-02-28T04:49:14;7.13;;;6.50;;
14688;SDS011;7432;48.728;9.154;2023-02-28T04:51:41;6.50;;;5.90;;
14688;SDS011;7432;48.728;9.154;2023-02-28T04:54:08;6.77;;;6.10;;
14688;SDS011;7432;48.728;9.154;2023-02-28T04:56:34;7.10;;;6.40;;
14688;SDS011;7432;48.728;9.154;2023-02-28T04:59:02;7.30;;;6.10;;
14688;SDS011;7432;48.728;9.154;2023-02-28T05:01:29;9.07;;;8.13;;
14688;SDS011;7432;48.728;9.154;2023-02-28T05:03:58;7.50;;;6.80;;
14688;SDS011;7432;48.728;9.154;2023-02-28T05:06:26;7.17;;;6.47;;
14688;SDS011;7432;48.728;9.154;2023-02-28T05:08:54;9.47;;;7.70;;
14688;SDS011;7432;48.728;9.154;2023-02-28T05:11:21;7.63;;;6.93;;
14688;SDS011;7432;48.728;9.154;2023-02-28T05:13:49;7.43;;;6.73;;
14688;SDS011;7432;48.728;9.154;2023-02-28T05:16:18;8.23;;;7.50;;
14688;SDS011;7432;48.728;9.154;2023-02-28T05:18:45;8.33;;;7.53;;
14688;SDS011;7432;48.728;9.154;2023-02-28T05:21:22;7.70;;;6.20;;
14688;SDS011;7432;48.728;9.154;2023-02-28T05:23:50;11.03;;;9.63;;
14688;SDS011;7432;48.728;9.154;2023-02-28T05:26:17;10.37;;;7.27;;
14688;SDS011;7432;48.728;9.154;2023-02-28T05:28:43;42.40;;;23.40;;
14688;SDS011;7432;48.728;9.154;2023-02-28T05:31:10;8.70;;;7.43;;
14688;SDS011;7432;48.728;9.154;2023-02-28T05:33:38;7.83;;;6.70;;
14688;SDS011;7432;48.728;9.154;2023-02-28T05:36:06;9.03;;;8.03;;
14688;SDS011;7432;48.728;9.154;2023-02-28T05:38:33;8.60;;;7.87;;
14688;SDS011;7432;48.728;9.154;2023-02-28T05:40:59;8.40;;;7.60;;
14688;SDS011;7432;48.728;9.154;2023-02-28T05:43:25;8.63;;;7.83;;
14688;SDS011;7432;48.728;9.154;2023-02-28T05:45:52;8.30;;;7.50;;
14688;SDS011;7432;48.728;9.154;2023-02-28T05:48:18;10.50;;;7.60;;
14688;SDS011;7432;48.728;9.154;2023-02-28T05:50:46;10.50;;;9.00;;
14688;SDS011;7432;48.728;9.154;2023-02-28T05:53:12;11.80;;;8.10;;
14688;SDS011;7432;48.728;9.154;2023-02-28T05:55:39;9.40;;;8.50;;
14688;SDS011;7432;48.728;9.154;2023-02-28T05:58:06;10.07;;;8.97;;
14688;SDS011;7432;48.728;9.154;2023-02-28T06:00:32;8.40;;;7.47;;
14688;SDS011;7432;48.728;9.154;2023-02-28T06:02:58;8.53;;;7.70;;
14688;SDS011;7432;48.728;9.154;2023-02-28T06:05:27;8.57;;;7.77;;
14688;SDS011;7432;48.728;9.154;2023-02-28T06:07:55;7.77;;;6.90;;
14688;SDS011;7432;48.728;9.154;2023-02-28T06:10:21;13.37;;;10.17;;
14688;SDS011;7432;48.728;9.154;2023-02-28T06:12:47;9.23;;;8.43;;
14688;SDS011;7432;48.728;9.154;2023-02-28T06:15:15;9.17;;;8.13;;
14688;SDS011;7432;48.728;9.154;2023-02-28T06:17:42;8.43;;;7.63;;
14688;SDS011;7432;48.728;9.154;2023-02-28T06:20:09;8.50;;;7.63;;
14688;SDS011;7432;48.728;9.154;2023-02-28T06:22:37;15.77;;;11.23;;
14688;SDS011;7432;48.728;9.154;2023-02-28T06:25:06;23.77;;;14.50;;
14688;SDS011;7432;48.728;9.154;2023-02-28T06:27:33;10.50;;;8.10;;
14688;SDS011;7432;48.728;9.154;2023-02-28T06:29:59;11.57;;;8.27;;
14688;SDS011;7432;48.728;9.154;2023-02-28T06:32:26;9.10;;;8.20;;
14688;SDS011;7432;48.728;9.154;2023-02-28T06:34:52;14.70;;;10.80;;
14688;SDS011;7432;48.728;9.154;2023-02-28T06:37:19;9.33;;;8.40;;
14688;SDS011;7432;48.728;9.154;2023-02-28T06:39:45;9.87;;;8.13;;
14688;SDS011;7432;48.728;9.154;2023-02-28T06:42:13;14.17;;;10.13;;
14688;SDS011;7432;48.728;9.154;2023-02-28T06:44:39;13.00;;;10.27;;
14688;SDS011;7432;48.728;9.154;2023-02-28T06:47:07;23.50;;;13.23;;
14688;SDS011;7432;48.728;9.154;2023-02-28T06:49:34;17.53;;;11.50;;
14688;SDS011;7432;48.728;9.154;2023-02-28T06:52:03;9.00;;;8.17;;
14688;SDS011;7432;48.728;9.154;2023-02-28T06:54:29;8.73;;;7.90;;
14688;SDS011;7432;48.728;9.154;2023-02-28T06:56:57;12.33;;;10.10;;
14688;SDS011;7432;48.728;9.154;2023-02-28T06:59:25;13.93;;;10.23;;
14688;SDS011;7432;48.728;9.154;2023-02-28T07:01:51;9.77;;;7.87;;
14688;SDS011;7432;48.728;9.154;2023-02-28T07:04:18;22.83;;;14.40;;
14688;SDS011;7432;48.728;9.154;2023-02-28T07:06:44;18.50;;;11.73;;
14688;SDS011;7432;48.728;9.154;2023-02-28T07:09:10;20.00;;;13.10;;
14688;SDS011;7432;48.728;9.154;2023-02-28T07:11:38;13.10;;;9.50;;
14688;SDS011;7432;48.728;9.154;2023-02-28T07:14:06;9.27;;;8.27;;
14688;SDS011;7432;48.728;9.154;2023-02-28T07:16:34;8.90;;;7.60;;
14688;SDS011;7432;48.728;9.154;2023-02-28T07:19:01;10.67;;;8.07;;
14688;SDS011;7432;48.728;9.154;2023-02-28T07:21:28;10.23;;;9.13;;
14688;SDS011;7432;48.728;9.154;2023-02-28T07:23:55;9.27;;;8.37;;
14688;SDS011;7432;48.728;9.154;2023-02-28T07:26:21;9.50;;;8.50;;
14688;SDS011;7432;48.728;9.154;2023-02-28T07:28:48;13.13;;;8.87;;
14688;SDS011;7432;48.728;9.154;2023-02-28T07:31:15;9.67;;;8.67;;
14688;SDS011;7432;48.728;9.154;2023-02-28T07:33:44;9.57;;;8.57;;
14688;SDS011;7432;48.728;9.154;2023-02-28T07:36:12;9.00;;;8.10;;
14688;SDS011;7432;48.728;9.154;2023-02-28T07:38:40;9.43;;;8.57;;
14688;SDS011;7432;48.728;9.154;2023-02-28T07:41:08;11.57;;;8.40;;
14688;SDS011;7432;48.728;9.154;2023-02-28T07:43:35;11.67;;;9.80;;
14688;SDS011;7432;48.728;9.154;2023-02-28T07:46:02;11.20;;;9.93;;
14688;SDS011;7432;48.728;9.154;2023-02-28T07:48:30;10.03;;;8.43;;
14688;SDS011;7432;48.728;9.154;2023-02-28T07:50:58;11.13;;;9.50;;
14688;SDS011;7432;48.728;9.154;2023-02-28T07:53:25;9.90;;;8.53;;
14688;SDS011;7432;48.728;9.154;2023-02-28T07:55:54;10.20;;;9.20;;
14688;SDS011;7432;48.728;9.154;2023-02-28T07:58:21;10.03;;;8.83;;
14688;SDS011;7432;48.728;9.154;2023-02-28T08:00:47;11.60;;;8.50;;
14688;SDS011;7432;48.728;9.154;2023-02-28T08:03:14;9.90;;;8.90;;
14688;SDS011;7432;48.728;9.154;2023-02-28T08:05:40;11.67;;;9.50;;
14688;SDS011;7432;48.728;9.154;2023-02-28T08:08:08;11.00;;;9.17;;
14688;SDS011;7432;48.728;9.154;2023-02-28T08:10:34;12.40;;;8.97;;
14688;SDS011;7432;48.728;9.154;2023-02-28T08:13:01;9.70;;;8.60;;
14688;SDS011;7432;48.728;9.154;2023-02-28T08:15:27;11.80;;;9.67;;
14688;SDS011;7432;48.728;9.154;2023-02-28T08:17:53;11.53;;;9.00;;
14688;SDS011;7432;48.728;9.154;2023-02-28T08:20:21;11.87;;;9.77;;
14688;SDS011;7432;48.728;9.154;2023-02-28T08:22:47;9.70;;;8.60;;
14688;SDS011;7432;48.728;9.154;2023-02-28T08:25:15;11.03;;;9.40;;
14688;SDS011;7432;48.728;9.154;2023-02-28T08:27:42;11.77;;;8.93;;
14688;SDS011;7432;48.728;9.154;2023-02-28T08:30:09;11.33;;;9.33;;
14688;SDS011;7432;48.728;9.154;2023-02-28T08:32:37;9.67;;;8.67;;
14688;SDS011;7432;48.728;9.154;2023-02-28T08:35:03;11.33;;;9.37;;
14688;SDS011;7432;48.728;9.154;2023-02-28T08:37:31;10.27;;;9.03;;
14688;SDS011;7432;48.728;9.154;2023-02-28T08:39:57;11.77;;;9.47;;
14688;SDS011;7432;48.728;9.154;2023-02-28T08:42:25;10.80;;;9.07;;
14688;SDS011;7432;48.728;9.154;2023-02-28T08:44:51;10.63;;;9.37;;
14688;SDS011;7432;48.728;9.154;2023-02-28T08:47:18;12.53;;;8.80;;
14688;SDS011;7432;48.728;9.154;2023-02-28T08:49:44;12.37;;;9.47;;
14688;SDS011;7432;48.728;9.154;2023-02-28T08:52:11;10.00;;;8.97;;
14688;SDS011;7432;48.728;9.154;2023-02-28T08:54:37;11.63;;;9.37;;
14688;SDS011;7432;48.728;9.154;2023-02-28T08:57:04;10.20;;;9.17;;
14688;SDS011;7432;48.728;9.154;2023-02-28T08:59:31;9.67;;;8.63;;
14688;SDS011;7432;48.728;9.154;2023-02-28T09:01:58;10.87;;;9.50;;
14688;SDS011;7432;48.728;9.154;2023-02-28T09:04:27;11.97;;;9.60;;
14688;SDS011;7432;48.728;9.154;2023-02-28T09:06:55;15.80;;;10.17;;
14688;SDS011;7432;48.728;9.154;2023-02-28T09:09:22;10.33;;;9.30;;
14688;SDS011;7432;48.728;9.154;2023-02-28T09:11:48;10.23;;;9.20;;
14688;SDS011;7432;48.728;9.154;2023-02-28T09:14:14;10.20;;;9.13;;
14688;SDS011;7432;48.728;9.154;2023-02-28T09:16:43;10.60;;;9.50;;
14688;SDS011;7432;48.728;9.154;2023-02-28T09:19:10;11.10;;;8.80;;
14688;SDS011;7432;48.728;9.154;2023-02-28T09:21:37;11.67;;;9.87;;
14688;SDS011;7432;48.728;9.154;2023-02-28T09:24:03;11.70;;;9.60;;
14688;SDS011;7432;48.728;9.154;2023-02-28T09:26:30;9.80;;;8.80;;
14688;SDS011;7432;48.728;9.154;2023-02-28T09:28:56;11.53;;;10.33;;
14688;SDS011;7432;48.728;9.154;2023-02-28T09:31:24;10.43;;;9.13;;
14688;SDS011;7432;48.728;9.154;2023-02-28T09:33:54;11.20;;;9.67;;
14688;SDS011;7432;48.728;9.154;2023-02-28T09:36:22;10.43;;;9.33;;
14688;SDS011;7432;48.728;9.154;2023-02-28T09:38:50;10.20;;;9.07;;
14688;SDS011;7432;48.728;9.154;2023-02-28T09:41:19;11.13;;;10.03;;
14688;SDS011;7432;48.728;9.154;2023-02-28T09:43:49;10.93;;;9.47;;
14688;SDS011;7432;48.728;9.154;2023-02-28T09:46:21;11.70;;;10.20;;
14688;SDS011;7432;48.728;9.154;2023-02-28T09:48:57;11.23;;;9.80;;
14688;SDS011;7432;48.728;9.154;2023-02-28T09:51:28;11.13;;;9.50;;
14688;SDS011;7432;48.728;9.154;2023-02-28T09:54:00;11.87;;;9.67;;
14688;SDS011;7432;48.728;9.154;2023-02-28T09:56:28;12.17;;;10.53;;
14688;SDS011;7432;48.728;9.154;2023-02-28T09:59:00;11.73;;;10.03;;
14688;SDS011;7432;48.728;9.154;2023-02-28T10:01:30;11.70;;;9.83;;
14688;SDS011;7432;48.728;9.154;2023-02-28T10:04:05;10.63;;;9.23;;
14688;SDS011;7432;48.728;9.154;2023-02-28T10:06:38;11.43;;;9.93;;
14688;SDS011;7432;48.728;9.154;2023-02-28T10:09:11;11.10;;;9.60;;
14688;SDS011;7432;48.728;9.154;2023-02-28T10:11:42;11.43;;;9.67;;
14688;SDS011;7432;48.728;9.154;2023-02-28T10:14:11;10.30;;;8.80;;
14688;SDS011;7432;48.728;9.154;2023-02-28T10:16:42;11.13;;;9.13;;
14688;SDS011;7432;48.728;9.154;2023-02-28T10:19:14;11.73;;;9.50;;
14688;SDS011;7432;48.728;9.154;2023-02-28T10:21:47;10.20;;;9.20;;
14688;SDS011;7432;48.728;9.154;2023-02-28T10:24:20;10.50;;;9.40;;
14688;SDS011;7432;48.728;9.154;2023-02-28T10:26:52;10.93;;;9.30;;
14688;SDS011;7432;48.728;9.154;2023-02-28T10:29:23;15.33;;;10.27;;
14688;SDS011;7432;48.728;9.154;2023-02-28T10:31:49;13.37;;;9.77;;
14688;SDS011;7432;48.728;9.154;2023-02-28T10:34:17;12.60;;;9.80;;
14688;SDS011;7432;48.728;9.154;2023-02-28T10:36:43;24.27;;;14.30;;
14688;SDS011;7432;48.728;9.154;2023-02-28T10:42:18;10.40;;;9.30;;
14688;SDS011;7432;48.728;9.154;2023-02-28T10:44:46;11.17;;;9.77;;
14688;SDS011;7432;48.728;9.154;2023-02-28T10:47:13;9.83;;;8.80;;
14688;SDS011;7432;48.728;9.154;2023-02-28T10:49:48;11.60;;;10.40;;
14688;SDS011;7432;48.728;9.154;2023-02-28T10:52:32;10.80;;;9.70;;
14688;SDS011;7432;48.728;9.154;2023-02-28T10:55:13;10.70;;;9.67;;
14688;SDS011;7432;48.728;9.154;2023-02-28T10:57:41;10.73;;;9.63;;
14688;SDS011;7432;48.728;9.154;2023-02-28T11:00:12;11.53;;;9.67;;
14688;SDS011;7432;48.728;9.154;2023-02-28T11:02:41;11.73;;;9.60;;
14688;SDS011;7432;48.728;9.154;2023-02-28T11:05:27;13.93;;;12.43;;
14688;SDS011;7432;48.728;9.154;2023-02-28T11:07:56;13.57;;;10.30;;
14688;SDS011;7432;48.728;9.154;2023-02-28T11:10:26;11.43;;;10.20;;
14688;SDS011;7432;48.728;9.154;2023-02-28T11:12:57;10.27;;;9.20;;
14688;SDS011;7432;48.728;9.154;2023-02-28T11:15:25;15.10;;;11.03;;
14688;SDS011;7432;48.728;9.154;2023-02-28T11:17:53;10.53;;;9.00;;
14688;SDS011;7432;48.728;9.154;2023-02-28T11:20:21;13.70;;;11.83;;
14688;SDS011;7432;48.728;9.154;2023-02-28T11:22:52;12.23;;;10.53;;
14688;SDS011;7432;48.728;9.154;2023-02-28T11:25:21;11.43;;;10.33;;
14688;SDS011;7432;48.728;9.154;2023-02-28T11:27:52;11.03;;;9.83;;
14688;SDS011;7432;48.728;9.154;2023-02-28T11:30:23;11.53;;;10.40;;
14688;SDS011;7432;48.728;9.154;2023-02-28T11:32:51;11.10;;;10.00;;
14688;SDS011;7432;48.728;9.154;2023-02-28T11:35:19;12.53;;;10.77;;
14688;SDS011;7432;48.728;9.154;2023-02-28T11:37:52;10.93;;;9.83;;
14688;SDS011;7432;48.728;9.154;2023-02-28T11:40:20;11.27;;;9.90;;
14688;SDS011;7432;48.728;9.154;2023-02-28T11:42:55;11.10;;;9.90;;
14688;SDS011;7432;48.728;9.154;2023-02-28T11:45:32;12.50;;;10.03;;
14688;SDS011;7432;48.728;9.154;2023-02-28T11:48:10;12.67;;;10.57;;
14688;SDS011;7432;48.728;9.154;2023-02-28T11:50:45;10.57;;;9.37;;
14688;SDS011;7432;48.728;9.154;2023-02-28T11:53:21;10.87;;;9.77;;
14688;SDS011;7432;48.728;9.154;2023-02-28T11:56:06;14.23;;;10.37;;
14688;SDS011;7432;48.728;9.154;2023-02-28T11:58:38;11.70;;;10.50;;
14688;SDS011;7432;48.728;9.154;2023-02-28T12:01:19;11.50;;;10.30;;
14688;SDS011;7432;48.728;9.154;2023-02-28T12:03:59;11.50;;;10.33;;
14688;SDS011;7432;48.728;9.154;2023-02-28T12:06:31;10.87;;;9.73;;
14688;SDS011;7432;48.728;9.154;2023-02-28T12:09:08;11.33;;;10.23;;
14688;SDS011;7432;48.728;9.154;2023-02-28T12:11:48;11.50;;;9.73;;
14688;SDS011;7432;48.728;9.154;2023-02-28T12:14:25;11.70;;;10.30;;
14688;SDS011;7432;48.728;9.154;2023-02-28T12:17:13;11.93;;;10.73;;
14688;SDS011;7432;48.728;9.154;2023-02-28T12:19:51;12.63;;;10.97;;
14688;SDS011;7432;48.728;9.154;2023-02-28T12:22:27;10.90;;;9.87;;
14688;SDS011;7432;48.728;9.154;2023-02-28T12:28:00;10.97;;;9.87;;
14688;SDS011;7432;48.728;9.154;2023-02-28T12:30:27;11.13;;;9.97;;
14688;SDS011;7432;48.728;9.154;2023-02-28T12:32:56;11.40;;;10.20;;
14688;SDS011;7432;48.728;9.154;2023-02-28T12:35:33;10.47;;;9.47;;
14688;SDS011;7432;48.728;9.154;2023-02-28T12:38:04;10.27;;;9.17;;
14688;SDS011;7432;48.728;9.154;2023-02-28T12:40:40;11.73;;;10.33;;
14688;SDS011;7432;48.728;9.154;2023-02-28T12:43:11;10.30;;;9.30;;
14688;SDS011;7432;48.728;9.154;2023-02-28T12:45:40;11.83;;;10.23;;
14688;SDS011;7432;48.728;9.154;2023-02-28T12:48:11;13.37;;;10.20;;
14688;SDS011;7432;48.728;9.154;2023-02-28T12:50:41;11.50;;;10.30;;
14688;SDS011;7432;48.728;9.154;2023-02-28T12:53:09;11.43;;;10.27;;
14688;SDS011;7432;48.728;9.154;2023-02-28T12:55:41;11.50;;;10.37;;
14688;SDS011;7432;48.728;9.154;2023-02-28T12:58:18;10.60;;;9.60;;
14688;SDS011;7432;48.728;9.154;2023-02-28T13:01:03;12.30;;;11.00;;
14688;SDS011;7432;48.728;9.154;2023-02-28T13:03:44;13.70;;;10.67;;
14688;SDS011;7432;48.728;9.154;2023-02-28T13:06:28;11.37;;;10.27;;
14688;SDS011;7432;48.728;9.154;2023-02-28T13:09:10;11.67;;;10.13;;
14688;SDS011;7432;48.728;9.154;2023-02-28T13:11:40;13.83;;;10.90;;
14688;SDS011;7432;48.728;9.154;2023-02-28T13:14:25;11.13;;;9.83;;
14688;SDS011;7432;48.728;9.154;2023-02-28T13:16:59;11.37;;;10.27;;
14688;SDS011;7432;48.728;9.154;2023-02-28T13:19:29;10.80;;;9.77;;
14688;SDS011;7432;48.728;9.154;2023-02-28T13:21:57;11.77;;;9.83;;
14688;SDS011;7432;48.728;9.154;2023-02-28T13:27:23;10.47;;;9.37;;
14688;SDS011;7432;48.728;9.154;2023-02-28T13:30:02;11.50;;;10.30;;
14688;SDS011;7432;48.728;9.154;2023-02-28T13:33:23;11.57;;;10.37;;
14688;SDS011;7432;48.728;9.154;2023-02-28T13:36:01;11.80;;;10.60;;
14688;SDS011;7432;48.728;9.154;2023-02-28T13:38:34;10.90;;;9.70;;
14688;SDS011;7432;48.728;9.154;2023-02-28T13:44:04;12.23;;;10.93;;
14688;SDS011;7432;48.728;9.154;2023-02-28T13:46:32;12.03;;;10.23;;
14688;SDS011;7432;48.728;9.154;2023-02-28T13:49:23;12.13;;;10.40;;
14688;SDS011;7432;48.728;9.154;2023-02-28T13:51:53;13.13;;;10.97;;
14688;SDS011;7432;48.728;9.154;2023-02-28T13:54:33;11.23;;;10.17;;
14688;SDS011;7432;48.728;9.154;2023-02-28T13:57:11;11.70;;;10.60;;
14688;SDS011;7432;48.728;9.154;2023-02-28T13:59:49;14.57;;;10.47;;
14688;SDS011;7432;48.728;9.154;2023-02-28T14:02:47;11.10;;;10.00;;
14688;SDS011;7432;48.728;9.154;2023-02-28T14:05:29;11.23;;;10.10;;
14688;SDS011;7432;48.728;9.154;2023-02-28T14:07:58;11.57;;;10.47;;
14688;SDS011;7432;48.728;9.154;2023-02-28T14:10:30;11.50;;;10.07;;
14688;SDS011;7432;48.728;9.154;2023-02-28T14:13:00;12.93;;;10.60;;
14688;SDS011;7432;48.728;9.154;2023-02-28T14:15:39;10.77;;;9.67;;
14688;SDS011;7432;48.728;9.154;2023-02-28T14:21:01;12.67;;;10.30;;
14688;SDS011;7432;48.728;9.154;2023-02-28T14:23:41;13.07;;;10.40;;
14688;SDS011;7432;48.728;9.154;2023-02-28T14:26:37;12.53;;;10.60;;
14688;SDS011;7432;48.728;9.154;2023-02-28T14:29:32;11.43;;;10.10;;
14688;SDS011;7432;48.728;9.154;2023-02-28T14:32:11;12.37;;;10.20;;
14688;SDS011;7432;48.728;9.154;2023-02-28T14:34:48;16.17;;;9.47;;
14688;SDS011;7432;48.728;9.154;2023-02-28T14:37:22;12.20;;;10.07;;
14688;SDS011;7432;48.728;9.154;2023-02-28T14:39:53;11.90;;;10.70;;
14688;SDS011;7432;48.728;9.154;2023-02-28T14:42:28;11.63;;;10.43;;
14688;SDS011;7432;48.728;9.154;2023-02-28T14:44:57;12.17;;;10.27;;
14688;SDS011;7432;48.728;9.154;2023-02-28T14:47:24;11.33;;;10.17;;
14688;SDS011;7432;48.728;9.154;2023-02-28T14:49:54;12.13;;;10.13;;
14688;SDS011;7432;48.728;9.154;2023-02-28T14:52:22;12.33;;;11.13;;
14688;SDS011;7432;48.728;9.154;2023-02-28T14:54:52;11.60;;;10.40;;
14688;SDS011;7432;48.728;9.154;2023-02-28T14:57:21;12.37;;;11.07;;
14688;SDS011;7432;48.728;9.154;2023-02-28T14:59:56;10.43;;;9.43;;
14688;SDS011;7432;48.728;9.154;2023-02-28T15:02:24;11.93;;;9.93;;
14688;SDS011;7432;48.728;9.154;2023-02-28T15:04:52;9.73;;;8.83;;
14688;SDS011;7432;48.728;9.154;2023-02-28T15:07:21;12.23;;;10.90;;
14688;SDS011;7432;48.728;9.154;2023-02-28T15:10:06;12.13;;;11.03;;
14688;SDS011;7432;48.728;9.154;2023-02-28T15:12:34;11.57;;;10.37;;
14688;SDS011;7432;48.728;9.154;2023-02-28T15:15:00;11.73;;;10.53;;
14688;SDS011;7432;48.728;9.154;2023-02-28T15:17:27;14.47;;;12.37;;
14688;SDS011;7432;48.728;9.154;2023-02-28T15:19:54;11.53;;;10.43;;
14688;SDS011;7432;48.728;9.154;2023-02-28T15:22:24;11.90;;;10.20;;
14688;SDS011;7432;48.728;9.154;2023-02-28T15:24:55;13.80;;;9.50;;
14688;SDS011;7432;48.728;9.154;2023-02-28T15:27:22;12.10;;;10.80;;